Time;durP1;ratioP1;P1;durP2;ratioP2;P2;SDS_P1;SDS_P2;PMS_P1;PMS_P2;Temp;Humidity;BMP_temperature;BMP_pressure;BME280_temperature;BME280_humidity;BME280_pressure;Samples;Min_cycle;Max_cycle;Signal;HPM_P1;HPM_P2
2023/05/30 00:00:31;;;;;;;12.70;3.20;;;;;;;9.28;70.40;102569.28;4957526;28;20014;-73
2023/05/30 00:02:57;;;;;;;13.68;3.63;;;;;;;9.28;70.62;102569.28;4938645;28;20031;-73
2023/05/30 00:05:23;;;;;;;15.07;3.72;;;;;;;9.31;70.43;102582.41;4922692;28;20041;-73
2023/05/30 00:07:48;;;;;;;10.73;3.15;;;;;;;9.22;71.83;102570.84;4921093;28;20045;-72
2023/05/30 00:10:14;;;;;;;16.77;3.97;;;;;;;9.21;71.69;102580.44;4942219;28;20033;-72
2023/05/30 00:12:42;;;;;;;14.82;3.63;;;;;;;9.25;72.09;102579.66;4958565;28;20482;-73
2023/05/30 00:15:08;;;;;;;20.83;3.72;;;;;;;9.21;72.80;102574.31;4942811;28;20034;-73
2023/05/30 00:17:35;;;;;;;12.65;3.38;;;;;;;9.15;72.78;102580.28;4958239;28;20030;-72
2023/05/30 00:20:02;;;;;;;14.50;3.75;;;;;;;9.13;73.39;102584.63;4956303;28;20088;-72
2023/05/30 00:22:28;;;;;;;12.77;3.70;;;;;;;9.09;73.68;102577.56;4958214;28;20414;-73
2023/05/30 00:24:53;;;;;;;11.10;3.33;;;;;;;9.05;73.17;102576.63;4942384;28;20062;-73
2023/05/30 00:27:19;;;;;;;14.45;3.45;;;;;;;8.98;73.86;102591.28;4974489;28;20531;-72
2023/05/30 00:29:47;;;;;;;18.13;4.40;;;;;;;9.04;73.93;102576.56;4958196;28;20049;-72
2023/05/30 00:32:13;;;;;;;14.75;3.50;;;;;;;8.98;74.20;102586.03;4942782;28;20054;-73
2023/05/30 00:34:38;;;;;;;14.57;3.90;;;;;;;8.96;74.74;102581.63;4940891;28;20473;-72
2023/05/30 00:37:05;;;;;;;17.55;4.07;;;;;;;8.93;74.56;102576.31;4991990;28;20044;-72
2023/05/30 00:39:31;;;;;;;16.67;4.22;;;;;;;8.94;75.06;102580.72;4956094;28;20144;-72
2023/05/30 00:41:57;;;;;;;13.50;3.55;;;;;;;8.91;74.99;102584.13;4957554;28;20023;-73
2023/05/30 00:44:22;;;;;;;18.98;4.35;;;;;;;8.87;75.09;102584.91;4958110;28;20093;-73
2023/05/30 00:46:50;;;;;;;16.95;3.80;;;;;;;8.82;75.49;102576.06;4957827;28;20042;-72
2023/05/30 00:49:16;;;;;;;13.68;3.25;;;;;;;8.80;75.74;102581.25;4975817;28;20030;-73
2023/05/30 00:51:42;;;;;;;14.88;3.97;;;;;;;8.76;75.66;102586.38;4961129;28;20038;-73
2023/05/30 00:54:08;;;;;;;19.55;3.65;;;;;;;8.75;75.70;102590.75;4941443;28;20137;-73
2023/05/30 00:56:34;;;;;;;15.02;3.92;;;;;;;8.71;75.83;102590.63;4926931;28;20495;-73
2023/05/30 00:59:01;;;;;;;18.40;3.92;;;;;;;8.70;76.79;102583.63;4959041;28;20027;-73
2023/05/30 01:01:27;;;;;;;19.80;4.03;;;;;;;8.68;76.41;102586.22;4950960;28;20045;-72
2023/05/30 01:03:52;;;;;;;15.90;4.65;;;;;;;8.67;76.77;102590.53;4954247;28;20126;-72
2023/05/30 01:06:19;;;;;;;10.65;3.83;;;;;;;8.67;77.01;102589.66;4957548;28;20089;-73
2023/05/30 01:08:45;;;;;;;16.95;4.85;;;;;;;8.68;76.78;102601.91;4975001;28;20019;-73
2023/05/30 01:11:33;;;;;;;20.48;4.70;;;;;;;8.68;77.15;102599.28;4943899;28;20375;-72
2023/05/30 01:14:39;;;;;;;18.92;3.78;;;;;;;8.70;76.08;102591.47;4976848;28;20076;-73
2023/05/30 01:17:18;;;;;;;12.23;3.72;;;;;;;8.65;77.45;102587.00;4978095;28;20065;-72
2023/05/30 01:19:59;;;;;;;18.08;4.38;;;;;;;8.64;77.06;102592.22;4976599;28;20030;-72
2023/05/30 01:22:41;;;;;;;14.38;4.05;;;;;;;8.64;77.02;102592.22;4977337;28;20046;-73
2023/05/30 01:25:18;;;;;;;18.95;4.38;;;;;;;8.61;77.45;102589.53;4977394;28;20457;-72
2023/05/30 01:28:01;;;;;;;19.48;4.22;;;;;;;8.58;77.11;102582.50;4976888;28;20036;-73
2023/05/30 01:30:29;;;;;;;18.42;4.20;;;;;;;8.59;77.49;102591.19;4974831;28;20023;-73
2023/05/30 01:32:55;;;;;;;24.20;4.35;;;;;;;8.59;77.42;102580.75;4961676;28;20038;-72
2023/05/30 01:35:22;;;;;;;20.02;4.03;;;;;;;8.57;77.87;102592.91;4960704;28;20022;-73
2023/05/30 01:37:48;;;;;;;15.60;4.05;;;;;;;8.52;77.68;102590.19;4975805;28;20465;-73
2023/05/30 01:40:19;;;;;;;18.23;4.53;;;;;;;8.40;78.86;102597.66;4960028;28;20038;-73
2023/05/30 01:42:49;;;;;;;23.58;4.82;;;;;;;8.37;78.76;102592.38;4976794;28;20069;-73
2023/05/30 01:45:30;;;;;;;18.60;4.30;;;;;;;8.40;78.50;102595.94;4961476;28;20125;-73
2023/05/30 01:48:05;;;;;;;16.30;4.18;;;;;;;8.42;77.91;102598.56;4976658;28;20288;-73
2023/05/30 01:50:37;;;;;;;15.25;4.43;;;;;;;8.41;77.97;102600.31;4975252;28;20057;-73
2023/05/30 01:53:08;;;;;;;17.00;4.25;;;;;;;8.40;77.62;102606.38;4975868;28;20030;-73
2023/05/30 01:55:35;;;;;;;19.00;4.97;;;;;;;8.36;78.57;102598.44;4977117;28;20374;-72
2023/05/30 01:58:02;;;;;;;16.85;4.32;;;;;;;8.22;79.30;102606.81;4977005;28;20118;-73
2023/05/30 02:00:30;;;;;;;17.35;4.25;;;;;;;8.26;78.42;102611.28;4974269;28;20065;-72
2023/05/30 02:02:56;;;;;;;15.93;4.20;;;;;;;8.05;79.78;102614.19;4961077;28;20030;-73
2023/05/30 02:05:21;;;;;;;17.92;4.60;;;;;;;8.03;79.76;102613.28;4976434;28;20037;-73
2023/05/30 02:07:47;;;;;;;19.70;4.97;;;;;;;7.96;79.95;102617.44;4976138;28;20427;-73
2023/05/30 02:10:12;;;;;;;15.55;4.55;;;;;;;7.92;80.41;102614.69;4944499;28;20101;-72
2023/05/30 02:12:37;;;;;;;18.70;4.65;;;;;;;7.86;81.03;102618.03;4958992;28;20034;-72
2023/05/30 02:15:03;;;;;;;22.42;5.07;;;;;;;7.82;81.55;102613.56;4940886;28;20929;-73
2023/05/30 02:17:30;;;;;;;18.55;4.68;;;;;;;7.76;81.79;102621.22;4944732;28;20438;-72
2023/05/30 02:19:59;;;;;;;24.58;5.30;;;;;;;7.68;82.38;102626.19;4961573;28;20102;-73
2023/05/30 02:22:27;;;;;;;17.42;4.25;;;;;;;7.61;82.10;102616.41;4969645;28;20388;-73
2023/05/30 02:24:55;;;;;;;15.90;4.63;;;;;;;7.59;82.41;102623.34;4959710;28;20065;-73
2023/05/30 02:27:21;;;;;;;15.60;4.95;;;;;;;7.57;82.51;102623.28;4947783;28;20433;-72
2023/05/30 02:29:46;;;;;;;20.83;5.57;;;;;;;7.47;83.44;102618.66;4958388;28;20072;-73
2023/05/30 02:32:12;;;;;;;14.70;4.97;;;;;;;7.57;82.83;102625.00;4951173;28;20074;-73
2023/05/30 02:34:37;;;;;;;17.90;5.70;;;;;;;7.58;82.90;102621.56;4962361;28;20070;-73
2023/05/30 02:37:03;;;;;;;18.20;5.75;;;;;;;7.50;83.07;102623.94;4943645;28;20026;-73
2023/05/30 02:39:28;;;;;;;22.00;6.18;;;;;;;7.32;82.94;102597.31;4974600;28;20405;-73
2023/05/30 02:41:53;;;;;;;19.75;5.72;;;;;;;7.41;83.47;102615.84;4982101;28;20038;-73
2023/05/30 02:44:19;;;;;;;17.35;5.70;;;;;;;7.33;83.14;102614.75;4970818;28;20505;-73
2023/05/30 02:46:44;;;;;;;20.48;4.78;;;;;;;7.29;84.48;102617.22;4943737;28;20479;-73
2023/05/30 02:49:11;;;;;;;14.02;4.70;;;;;;;7.32;83.76;102618.19;4961063;28;20133;-72
2023/05/30 02:51:36;;;;;;;18.05;5.50;;;;;;;7.25;84.39;102612.75;4951079;28;20026;-73
2023/05/30 02:54:02;;;;;;;19.67;5.80;;;;;;;7.20;85.11;102618.69;4937909;28;20590;-73
2023/05/30 02:56:27;;;;;;;18.33;5.32;;;;;;;7.16;84.72;102627.25;4970656;28;20038;-73
2023/05/30 02:58:54;;;;;;;16.10;5.38;;;;;;;7.10;85.21;102614.91;4975659;28;20118;-73
2023/05/30 03:01:20;;;;;;;20.55;5.63;;;;;;;7.11;85.05;102619.28;4985477;28;20124;-73
2023/05/30 03:03:47;;;;;;;20.05;5.05;;;;;;;7.11;86.03;102629.69;4973484;28;20160;-73
2023/05/30 03:06:13;;;;;;;18.77;5.68;;;;;;;7.09;86.72;102626.19;4968177;28;20031;-73
2023/05/30 03:08:43;;;;;;;19.55;6.25;;;;;;;7.08;86.11;102613.97;4967929;28;20030;-73
2023/05/30 03:11:08;;;;;;;22.52;6.40;;;;;;;7.08;87.16;102613.97;4970308;28;20022;-73
2023/05/30 03:13:34;;;;;;;17.50;5.55;;;;;;;7.15;87.01;102626.34;4957315;28;20035;-73
2023/05/30 03:15:59;;;;;;;17.65;5.88;;;;;;;7.19;86.56;102617.78;4951104;28;20088;-72
2023/05/30 03:18:25;;;;;;;19.20;5.82;;;;;;;7.13;87.25;102622.84;4960131;28;20045;-72
2023/05/30 03:20:50;;;;;;;21.50;5.55;;;;;;;7.18;86.96;102617.75;4974295;28;20026;-73
2023/05/30 03:23:16;;;;;;;18.80;5.75;;;;;;;7.25;86.12;102624.94;4958666;28;20451;-73
2023/05/30 03:25:41;;;;;;;18.75;5.30;;;;;;;7.28;86.66;102628.53;4956475;28;20121;-73
2023/05/30 03:28:07;;;;;;;18.63;5.38;;;;;;;7.27;86.53;102628.47;4944482;28;20112;-73
2023/05/30 03:30:33;;;;;;;17.63;5.90;;;;;;;7.30;86.83;102631.19;4951022;28;20031;-73
2023/05/30 03:32:59;;;;;;;23.50;6.78;;;;;;;7.37;85.89;102632.22;4973956;28;20037;-72
2023/05/30 03:35:24;;;;;;;22.13;5.82;;;;;;;7.34;85.86;102634.75;4970776;28;20030;-73
2023/05/30 03:37:50;;;;;;;18.13;5.82;;;;;;;7.31;86.23;102638.13;4962791;28;20039;-73
2023/05/30 03:40:16;;;;;;;18.17;5.45;;;;;;;7.36;86.54;102644.41;4989720;28;20022;-73
2023/05/30 03:42:42;;;;;;;18.17;5.55;;;;;;;7.42;85.62;102644.56;4958106;28;20046;-73
2023/05/30 03:45:07;;;;;;;17.30;5.32;;;;;;;7.46;86.00;102645.56;4958674;28;20466;-72
2023/05/30 03:47:33;;;;;;;18.20;6.32;;;;;;;7.49;85.85;102655.22;4982806;28;20154;-73
2023/05/30 03:50:00;;;;;;;19.13;6.07;;;;;;;7.51;85.97;102651.78;4941844;28;20085;-73
2023/05/30 03:52:25;;;;;;;15.90;5.15;;;;;;;7.53;86.00;102652.72;4954597;28;20403;-73
2023/05/30 03:54:51;;;;;;;21.75;6.13;;;;;;;7.55;86.45;102656.25;4971837;28;20034;-73
2023/05/30 03:57:16;;;;;;;19.45;6.10;;;;;;;7.59;86.04;102652.91;4977339;28;20113;-73
2023/05/30 03:59:42;;;;;;;22.80;6.75;;;;;;;7.65;86.70;102662.66;4955975;28;20105;-73
2023/05/30 04:02:07;;;;;;;16.73;6.38;;;;;;;7.72;86.33;102661.97;4964382;28;20060;-73
2023/05/30 04:04:32;;;;;;;17.48;6.20;;;;;;;7.70;86.70;102663.69;4963144;28;20058;-73
2023/05/30 04:07:00;;;;;;;18.50;6.30;;;;;;;7.75;86.46;102662.06;4970196;28;20105;-73
2023/05/30 04:09:25;;;;;;;18.02;5.32;;;;;;;7.85;85.83;102659.75;4957854;28;20030;-73
2023/05/30 04:11:52;;;;;;;17.70;5.85;;;;;;;7.88;86.02;102662.44;4957722;28;20030;-73
2023/05/30 04:14:17;;;;;;;19.30;6.63;;;;;;;7.90;86.08;102661.66;4968868;28;20034;-73
2023/05/30 04:16:43;;;;;;;18.20;6.22;;;;;;;7.92;86.61;102654.72;4974257;28;20305;-73
2023/05/30 04:19:08;;;;;;;18.63;6.05;;;;;;;7.96;86.57;102653.09;4975498;28;20025;-73
2023/05/30 04:21:34;;;;;;;18.60;5.55;;;;;;;7.98;86.87;102662.72;4948348;28;20030;-73
2023/05/30 04:24:00;;;;;;;15.48;6.32;;;;;;;8.05;86.46;102663.78;4959558;28;20458;-73
2023/05/30 04:26:25;;;;;;;18.88;6.97;;;;;;;8.08;85.84;102660.38;4954576;28;20141;-74
2023/05/30 04:28:56;;;;;;;18.70;6.22;;;;;;;8.13;86.02;102666.59;4960209;28;20041;-72
2023/05/30 04:31:22;;;;;;;20.58;6.10;;;;;;;8.19;86.70;102664.19;4988923;28;20028;-73
2023/05/30 04:33:48;;;;;;;17.42;5.68;;;;;;;8.25;85.77;102666.06;4942169;28;20026;-73
2023/05/30 04:36:18;;;;;;;17.98;6.00;;;;;;;8.29;86.13;102665.31;4967755;28;20049;-73
2023/05/30 04:38:45;;;;;;;20.77;5.88;;;;;;;8.37;85.23;102663.78;4969035;28;20462;-73
2023/05/30 04:41:10;;;;;;;18.42;6.13;;;;;;;8.39;85.59;102666.44;4956941;28;20026;-73
2023/05/30 04:43:36;;;;;;;16.58;6.28;;;;;;;8.43;85.78;102668.28;4962467;28;20044;-74
2023/05/30 04:46:04;;;;;;;24.77;5.90;;;;;;;8.51;85.05;102660.69;4946906;28;20061;-73
2023/05/30 04:48:30;;;;;;;20.60;6.63;;;;;;;8.58;85.62;102668.72;4974121;28;20069;-73
2023/05/30 04:50:56;;;;;;;18.98;6.80;;;;;;;8.66;84.89;102655.84;4956848;28;20038;-73
2023/05/30 04:53:23;;;;;;;17.95;6.00;;;;;;;8.67;84.09;102663.72;4939844;28;20030;-73
2023/05/30 04:55:49;;;;;;;17.48;5.82;;;;;;;8.74;84.01;102663.91;4957912;28;20049;-73
2023/05/30 04:58:17;;;;;;;18.70;6.18;;;;;;;8.79;84.00;102655.31;4956824;28;20030;-73
2023/05/30 05:00:43;;;;;;;15.70;6.10;;;;;;;8.89;83.92;102652.91;4957616;28;20121;-73
2023/05/30 05:03:09;;;;;;;16.63;5.78;;;;;;;8.90;83.68;102654.69;4951578;28;20113;-73
2023/05/30 05:05:34;;;;;;;19.70;6.55;;;;;;;8.93;82.44;102655.63;4957181;28;20124;-73
2023/05/30 05:08:00;;;;;;;17.90;5.82;;;;;;;9.02;82.57;102655.88;4966227;28;20038;-73
2023/05/30 05:10:26;;;;;;;18.83;5.88;;;;;;;9.06;82.61;102655.94;4945076;28;20069;-73
2023/05/30 05:12:51;;;;;;;18.40;5.80;;;;;;;9.17;82.64;102659.69;4966716;28;20030;-73
2023/05/30 05:15:17;;;;;;;19.20;5.93;;;;;;;9.23;81.90;102656.34;4958472;28;20050;-74
2023/05/30 05:17:43;;;;;;;18.15;5.75;;;;;;;9.25;82.20;102657.25;4948746;28;20354;-73
2023/05/30 05:20:09;;;;;;;15.73;5.72;;;;;;;9.26;81.60;102653.78;4941121;28;20444;-73
2023/05/30 05:22:36;;;;;;;19.85;6.82;;;;;;;9.35;81.57;102647.03;4961832;28;20197;-73
2023/05/30 05:25:02;;;;;;;16.92;6.05;;;;;;;9.42;81.00;102653.28;4984716;28;20133;-73
2023/05/30 05:27:28;;;;;;;19.48;5.97;;;;;;;9.46;81.36;102656.84;4961787;28;20025;-73
2023/05/30 05:29:53;;;;;;;17.05;6.30;;;;;;;9.55;80.85;102657.03;4965713;28;20089;-73
2023/05/30 05:32:19;;;;;;;22.33;6.65;;;;;;;9.57;81.46;102668.44;4945136;28;20042;-73
2023/05/30 05:34:44;;;;;;;17.45;6.22;;;;;;;9.61;81.17;102657.19;4959503;28;20034;-73
2023/05/30 05:37:09;;;;;;;16.50;7.13;;;;;;;9.63;80.39;102670.31;4956741;28;20070;-73
2023/05/30 05:39:35;;;;;;;19.02;6.43;;;;;;;9.64;79.35;102667.72;4965714;28;20129;-73
2023/05/30 05:42:03;;;;;;;15.20;6.75;;;;;;;9.64;79.19;102662.50;4960234;28;20034;-74
2023/05/30 05:44:32;;;;;;;17.45;6.40;;;;;;;9.70;79.71;102669.59;4957469;28;20049;-73
2023/05/30 05:46:58;;;;;;;25.15;6.38;;;;;;;9.71;80.24;102664.38;4962207;28;20041;-74
2023/05/30 05:49:24;;;;;;;23.00;6.65;;;;;;;9.77;79.50;102668.88;4957323;28;20051;-74
2023/05/30 05:51:50;;;;;;;15.05;6.10;;;;;;;9.80;78.94;102657.59;5000918;28;20039;-74
2023/05/30 05:54:18;;;;;;;21.50;6.78;;;;;;;9.82;78.72;102667.22;4970439;28;20808;-74
2023/05/30 05:56:44;;;;;;;17.02;6.70;;;;;;;9.81;77.87;102670.69;4966530;28;20065;-73
2023/05/30 05:59:10;;;;;;;16.23;6.20;;;;;;;9.87;78.51;102675.19;4959290;28;20108;-74
2023/05/30 06:01:36;;;;;;;15.82;6.47;;;;;;;9.92;78.81;102672.66;4944387;28;20018;-72
2023/05/30 06:04:10;;;;;;;16.58;6.32;;;;;;;9.91;78.09;102676.13;4959979;28;20042;-73
2023/05/30 06:06:36;;;;;;;14.50;6.38;;;;;;;10.00;78.37;102682.44;4976302;28;20161;-73
2023/05/30 06:09:01;;;;;;;16.88;6.30;;;;;;;10.08;77.67;102673.84;4943779;28;20121;-74
2023/05/30 06:11:27;;;;;;;16.05;6.40;;;;;;;10.10;76.83;102666.88;4944997;28;20127;-72
2023/05/30 06:13:52;;;;;;;15.75;6.28;;;;;;;10.12;75.35;102670.44;4950445;28;20041;-73
2023/05/30 06:16:18;;;;;;;15.70;5.82;;;;;;;10.14;75.69;102679.19;4963588;28;20053;-73
2023/05/30 06:18:43;;;;;;;15.27;5.78;;;;;;;10.12;75.10;102678.28;4960354;28;20564;-73
2023/05/30 06:21:10;;;;;;;11.63;6.03;;;;;;;10.16;75.29;102681.00;4960831;28;20026;-69
2023/05/30 06:23:36;;;;;;;18.60;6.22;;;;;;;10.16;75.65;102673.13;4963037;28;20065;-70
2023/05/30 06:26:02;;;;;;;19.10;6.43;;;;;;;10.16;75.20;102680.13;4984741;28;20236;-70
2023/05/30 06:28:28;;;;;;;14.88;6.10;;;;;;;10.22;75.48;102670.63;4960281;28;20494;-70
2023/05/30 06:30:53;;;;;;;15.13;6.20;;;;;;;10.26;75.24;102678.53;4967040;28;20177;-70
2023/05/30 06:33:20;;;;;;;13.48;6.43;;;;;;;10.27;74.80;102678.59;4977663;28;20108;-71
2023/05/30 06:35:46;;;;;;;16.52;6.60;;;;;;;10.39;75.40;102678.84;4994855;28;20465;-70
2023/05/30 06:38:12;;;;;;;17.60;6.32;;;;;;;10.49;75.20;102684.25;4955361;28;20031;-70
2023/05/30 06:40:40;;;;;;;14.23;6.28;;;;;;;10.50;74.48;102678.16;4959915;28;20121;-71
2023/05/30 06:43:05;;;;;;;13.95;5.97;;;;;;;10.51;74.00;102677.28;4976264;28;20023;-70
2023/05/30 06:45:31;;;;;;;15.95;6.28;;;;;;;10.52;73.87;102687.81;4986991;28;20037;-70
2023/05/30 06:47:56;;;;;;;14.23;6.60;;;;;;;10.67;76.34;102676.69;4943566;28;20129;-71
2023/05/30 06:50:22;;;;;;;17.88;6.57;;;;;;;10.74;75.17;102683.81;4958948;28;20034;-70
2023/05/30 06:52:47;;;;;;;16.70;6.25;;;;;;;10.80;73.69;102683.03;4958663;28;20391;-70
2023/05/30 06:55:14;;;;;;;15.20;6.05;;;;;;;10.86;73.25;102682.25;4978541;28;20099;-71
2023/05/30 06:57:42;;;;;;;13.75;5.90;;;;;;;10.94;74.46;102691.13;4960758;28;20041;-71
2023/05/30 07:00:09;;;;;;;16.90;6.65;;;;;;;11.04;72.69;102690.44;4974610;28;20030;-70
2023/05/30 07:02:35;;;;;;;19.60;6.50;;;;;;;11.15;73.18;102694.94;4960606;28;20031;-70
2023/05/30 07:05:01;;;;;;;18.15;6.45;;;;;;;11.03;71.51;102693.94;4957893;28;20041;-69
2023/05/30 07:07:26;;;;;;;15.05;6.70;;;;;;;11.12;72.76;102697.53;4957626;28;20034;-70
2023/05/30 07:09:52;;;;;;;16.33;7.05;;;;;;;11.09;71.39;102693.13;4942001;28;20144;-71
2023/05/30 07:12:17;;;;;;;14.88;6.45;;;;;;;11.12;71.68;102695.81;4960532;28;20406;-71
2023/05/30 07:14:43;;;;;;;15.02;6.32;;;;;;;11.15;70.97;102694.94;4942599;28;20034;-70
2023/05/30 07:17:08;;;;;;;11.65;5.85;;;;;;;11.09;70.41;102686.16;4960171;28;20492;-70
2023/05/30 07:19:52;;;;;;;12.48;5.63;;;;;;;11.17;70.73;102703.75;4980692;28;20040;-70
2023/05/30 07:22:18;;;;;;;15.27;6.47;;;;;;;11.06;70.34;102701.84;4975012;28;20523;-70
2023/05/30 07:24:43;;;;;;;10.52;5.82;;;;;;;11.11;70.51;102701.91;4942245;28;20125;-69
2023/05/30 07:27:09;;;;;;;13.00;5.13;;;;;;;11.24;70.67;102695.97;4974285;28;20038;-70
2023/05/30 07:29:34;;;;;;;17.17;5.80;;;;;;;11.38;70.47;102696.19;4978078;28;20045;-70
2023/05/30 07:31:59;;;;;;;12.02;5.80;;;;;;;11.57;70.85;102692.09;4958754;28;20042;-70
2023/05/30 07:34:25;;;;;;;13.80;5.55;;;;;;;11.63;69.36;102700.91;4955046;28;20033;-69
2023/05/30 07:36:51;;;;;;;12.73;5.60;;;;;;;11.73;71.24;102703.66;4965976;28;20328;-71
2023/05/30 07:39:16;;;;;;;15.05;5.85;;;;;;;11.86;69.09;102703.84;4948223;28;20522;-70
2023/05/30 07:41:42;;;;;;;12.10;5.30;;;;;;;11.93;67.74;102706.59;4941900;28;20049;-69
2023/05/30 07:44:07;;;;;;;12.43;5.38;;;;;;;11.94;67.04;102707.50;4947418;28;20167;-70
2023/05/30 07:46:33;;;;;;;12.40;5.10;;;;;;;11.86;66.67;102707.34;4944230;28;20032;-71
2023/05/30 07:48:58;;;;;;;14.40;6.63;;;;;;;12.15;67.84;102709.47;4958002;28;20026;-70
2023/05/30 07:51:23;;;;;;;15.77;5.95;;;;;;;12.33;67.92;102705.31;4979297;28;20038;-71
2023/05/30 07:53:49;;;;;;;12.73;5.90;;;;;;;12.58;66.91;102696.78;4949440;28;20038;-70
2023/05/30 07:56:14;;;;;;;22.00;6.40;;;;;;;12.83;66.60;102703.16;4969807;28;20037;-71
2023/05/30 07:58:40;;;;;;;15.98;6.05;;;;;;;13.12;65.59;102699.88;4946878;28;20034;-69
2023/05/30 08:01:06;;;;;;;16.17;5.78;;;;;;;13.29;66.03;102704.41;4942734;28;20034;-69
2023/05/30 08:03:31;;;;;;;15.50;5.72;;;;;;;13.40;65.44;102692.19;4957798;28;20045;-70
2023/05/30 08:05:57;;;;;;;12.25;6.00;;;;;;;13.45;64.08;102701.00;4958593;28;20390;-69
2023/05/30 08:08:23;;;;;;;11.82;6.18;;;;;;;13.56;63.16;102693.19;4975379;28;20029;-69
2023/05/30 08:10:48;;;;;;;11.30;5.75;;;;;;;13.50;61.67;102688.75;4957370;28;20034;-70
2023/05/30 08:13:14;;;;;;;12.63;5.90;;;;;;;13.48;61.88;102674.69;4942846;28;20070;-70
2023/05/30 08:15:40;;;;;;;12.52;6.78;;;;;;;13.65;63.02;102687.06;4974560;28;20042;-69
2023/05/30 08:18:08;;;;;;;11.82;6.07;;;;;;;13.57;61.66;102689.66;4956077;28;20088;-69
2023/05/30 08:20:35;;;;;;;13.15;6.10;;;;;;;13.55;62.03;102685.25;4955361;28;20114;-69
2023/05/30 08:23:01;;;;;;;17.98;7.22;;;;;;;13.72;61.37;102687.97;4958191;28;20031;-70
2023/05/30 08:25:32;;;;;;;16.52;6.32;;;;;;;13.86;62.71;102687.19;4957762;28;20132;-70
2023/05/30 08:28:02;;;;;;;11.43;5.88;;;;;;;13.73;60.71;102692.38;4976440;28;20018;-70
2023/05/30 08:30:28;;;;;;;10.90;6.63;;;;;;;13.88;62.20;102678.38;4960173;28;20370;-69
2023/05/30 08:32:54;;;;;;;13.30;6.35;;;;;;;13.97;60.21;102684.56;4957255;28;20140;-69
2023/05/30 08:35:20;;;;;;;10.82;6.07;;;;;;;13.99;60.46;102684.56;4974242;28;20027;-70
2023/05/30 08:37:46;;;;;;;12.77;5.85;;;;;;;14.08;59.94;102681.97;4978925;28;20034;-69
2023/05/30 08:40:13;;;;;;;12.50;6.43;;;;;;;14.11;60.57;102684.63;4940864;28;20027;-69
2023/05/30 08:42:40;;;;;;;16.83;7.07;;;;;;;14.31;63.21;102673.22;4974229;28;20414;-69
2023/05/30 08:45:06;;;;;;;12.73;6.15;;;;;;;14.17;59.86;102674.06;4971914;28;21398;-70
2023/05/30 08:47:33;;;;;;;14.32;6.65;;;;;;;14.53;63.31;102668.88;4956352;28;20103;-69
2023/05/30 08:50:02;;;;;;;14.02;6.38;;;;;;;14.44;60.38;102679.41;4957878;28;20108;-70
2023/05/30 08:52:30;;;;;;;17.30;6.68;;;;;;;14.35;59.25;102675.00;4983900;28;20363;-70
2023/05/30 08:55:11;;;;;;;13.85;6.50;;;;;;;14.27;59.02;102667.06;4983318;28;20037;-69
2023/05/30 08:58:04;;;;;;;13.27;6.78;;;;;;;14.38;59.58;102665.34;4989932;28;20038;-69
2023/05/30 09:00:31;;;;;;;14.55;6.03;;;;;;;14.56;61.06;102672.38;4972364;28;20014;-70
2023/05/30 09:03:00;;;;;;;12.75;7.15;;;;;;;14.54;59.73;102671.50;4956499;28;20076;-69
2023/05/30 09:05:26;;;;;;;12.80;6.97;;;;;;;14.50;58.41;102663.59;4972697;28;20030;-69
2023/05/30 09:07:56;;;;;;;11.68;6.65;;;;;;;14.49;59.11;102661.81;4989746;28;20052;-70
2023/05/30 09:10:25;;;;;;;15.55;6.75;;;;;;;14.62;59.13;102662.75;4975032;28;20022;-69
2023/05/30 09:12:51;;;;;;;15.48;7.10;;;;;;;14.77;59.84;102665.41;4961524;28;20027;-70
2023/05/30 09:15:16;;;;;;;15.23;7.65;;;;;;;14.69;59.28;102668.03;4960853;28;20030;-69
2023/05/30 09:17:43;;;;;;;13.52;7.03;;;;;;;14.69;58.81;102660.09;4945781;28;20050;-74
2023/05/30 09:20:15;;;;;;;11.93;6.32;;;;;;;14.76;57.78;102655.72;4964372;28;20401;-74
2023/05/30 09:22:41;;;;;;;12.15;6.93;;;;;;;14.72;57.62;102656.59;4996354;28;20454;-76
2023/05/30 09:25:07;;;;;;;19.45;7.30;;;;;;;14.68;56.37;102657.47;4984009;28;20046;-77
2023/05/30 09:27:35;;;;;;;14.63;7.13;;;;;;;14.63;56.08;102654.84;4960329;28;20140;-75
2023/05/30 09:30:09;;;;;;;13.25;6.80;;;;;;;14.71;57.97;102654.81;4960258;28;20026;-77
2023/05/30 09:32:36;;;;;;;11.75;7.43;;;;;;;14.61;57.16;102647.75;4977563;28;20455;-74
2023/05/30 09:35:10;;;;;;;15.30;7.00;;;;;;;14.73;58.14;102653.94;4944601;28;20116;-74
2023/05/30 09:37:41;;;;;;;16.55;7.50;;;;;;;14.75;56.27;102643.41;4973921;28;20129;-75
2023/05/30 09:40:11;;;;;;;13.50;7.40;;;;;;;14.80;56.32;102635.50;4958285;28;20101;-75
2023/05/30 09:42:45;;;;;;;12.85;7.03;;;;;;;14.86;57.13;102636.34;4938928;28;20053;-75
2023/05/30 09:45:16;;;;;;;11.93;6.72;;;;;;;15.03;58.06;102635.47;4961670;28;20030;-75
2023/05/30 09:47:44;;;;;;;14.07;7.10;;;;;;;15.05;58.13;102625.75;4961091;28;20023;-76
2023/05/30 09:50:14;;;;;;;15.88;7.47;;;;;;;15.12;57.83;102626.66;4976667;28;20057;-75
2023/05/30 09:52:41;;;;;;;14.50;7.50;;;;;;;15.19;59.30;102623.97;4960392;28;20022;-75
2023/05/30 09:55:13;;;;;;;14.85;7.53;;;;;;;15.21;58.21;102619.59;4976739;28;20033;-75
2023/05/30 09:57:40;;;;;;;18.67;7.18;;;;;;;15.29;57.76;102623.97;4976047;28;20034;-75
2023/05/30 10:00:09;;;;;;;14.45;7.35;;;;;;;15.36;56.66;102628.34;4975259;28;20041;-75
2023/05/30 10:02:39;;;;;;;15.32;7.40;;;;;;;15.36;56.43;102623.94;4976930;28;20101;-76
2023/05/30 10:05:22;;;;;;;12.93;6.57;;;;;;;15.38;57.06;102623.91;4963266;28;20368;-75
2023/05/30 10:07:49;;;;;;;11.68;6.93;;;;;;;15.54;58.30;102620.34;4974920;28;20037;-75
2023/05/30 10:10:15;;;;;;;26.38;7.55;;;;;;;15.68;58.46;102622.06;4976075;28;20030;-76
2023/05/30 10:13:00;;;;;;;13.55;6.97;;;;;;;15.66;55.25;102616.78;4976254;28;20037;-75
2023/05/30 10:15:25;;;;;;;13.52;7.05;;;;;;;15.74;56.74;102614.94;4940960;28;20034;-77
2023/05/30 10:18:16;;;;;;;13.00;7.28;;;;;;;15.82;55.86;102620.25;4958648;28;20049;-75
2023/05/30 10:20:45;;;;;;;14.68;6.97;;;;;;;15.84;55.48;102618.47;4975991;28;20356;-76
2023/05/30 10:23:13;;;;;;;11.52;6.97;;;;;;;15.80;53.93;102615.84;4976379;28;20038;-75
2023/05/30 10:25:45;;;;;;;12.18;6.38;;;;;;;15.90;56.47;102610.53;4976108;28;20046;-75
2023/05/30 10:28:18;;;;;;;16.98;7.25;;;;;;;15.98;54.60;102621.03;4976033;28;20100;-75
2023/05/30 10:30:44;;;;;;;12.27;7.20;;;;;;;16.01;54.95;102613.06;4976507;28;20062;-75
2023/05/30 10:33:11;;;;;;;13.05;6.68;;;;;;;15.97;52.97;102599.91;4976728;28;20034;-76
2023/05/30 10:35:37;;;;;;;14.15;7.20;;;;;;;16.14;56.52;102616.53;4976491;28;20022;-76
2023/05/30 10:38:13;;;;;;;16.30;6.65;;;;;;;16.10;55.24;102620.97;4972142;28;20125;-76
2023/05/30 10:41:10;;;;;;;13.65;6.75;;;;;;;16.17;53.85;102616.50;4960024;28;20469;-75
2023/05/30 10:43:41;;;;;;;18.88;7.60;;;;;;;16.13;52.68;102601.53;4976133;28;20034;-75
2023/05/30 10:46:25;;;;;;;13.38;6.70;;;;;;;16.23;54.38;102610.28;4976071;28;20106;-75
2023/05/30 10:48:58;;;;;;;16.25;6.93;;;;;;;16.28;54.42;102603.22;4992466;28;20038;-75
2023/05/30 10:51:24;;;;;;;14.70;6.97;;;;;;;16.34;52.79;102604.94;4975803;28;20031;-74
2023/05/30 10:53:50;;;;;;;13.20;7.32;;;;;;;16.38;52.71;102594.31;4960341;28;20028;-75
2023/05/30 10:56:34;;;;;;;13.63;6.93;;;;;;;16.55;55.74;102601.22;4959993;28;20034;-75
2023/05/30 10:59:01;;;;;;;17.08;7.63;;;;;;;16.53;54.04;102603.00;4972466;28;20041;-75
2023/05/30 11:01:28;;;;;;;13.10;7.00;;;;;;;16.62;55.48;102600.25;4973274;28;20125;-76
2023/05/30 11:03:58;;;;;;;15.40;7.43;;;;;;;16.68;53.90;102587.00;4976209;28;20041;-74
2023/05/30 11:06:30;;;;;;;16.00;8.82;;;;;;;16.59;51.74;102595.91;4975377;28;20026;-76
2023/05/30 11:09:09;;;;;;;18.92;9.18;;;;;;;16.62;53.25;102587.94;4941062;28;20466;-76
2023/05/30 11:11:40;;;;;;;16.73;7.50;;;;;;;16.77;53.76;102586.91;4979587;28;20081;-75
2023/05/30 11:14:06;;;;;;;18.33;8.50;;;;;;;16.83;52.60;102590.38;4975356;28;20034;-75
2023/05/30 11:16:32;;;;;;;14.85;8.05;;;;;;;16.76;51.98;102579.84;4991311;28;20026;-74
2023/05/30 11:19:19;;;;;;;14.75;7.75;;;;;;;16.78;52.26;102575.41;4943477;28;20356;-75
2023/05/30 11:22:00;;;;;;;14.20;8.52;;;;;;;16.88;51.81;102578.00;4953437;28;20133;-76
2023/05/30 11:24:28;;;;;;;17.10;8.07;;;;;;;16.88;52.31;102572.69;4974233;28;20034;-75